createdAt,value
2023-02-12T00:01:37.238Z,102851.41
2023-02-12T00:04:06.950Z,102854.88
2023-02-12T00:06:35.466Z,102853.19
2023-02-12T00:09:04.124Z,102860.16
2023-02-12T00:11:32.640Z,102851.47
2023-02-12T00:14:02.978Z,102855.81
2023-02-12T00:16:31.773Z,102849.75
2023-02-12T00:19:00.817Z,102847.97
2023-02-12T00:21:30.568Z,102854.06
2023-02-12T00:23:59.180Z,102864.50
2023-02-12T00:26:27.678Z,102863.63
2023-02-12T00:28:56.346Z,102853.13
2023-02-12T00:31:27.006Z,102847.88
2023-02-12T00:33:59.194Z,102856.59
2023-02-12T00:36:31.387Z,102859.19
2023-02-12T00:39:02.175Z,102854.84
2023-02-12T00:41:31.240Z,102853.97
2023-02-12T00:43:59.788Z,102855.72
2023-02-12T00:46:28.258Z,102858.31
2023-02-12T00:48:56.883Z,102857.41
2023-02-12T00:51:25.193Z,102866.94
2023-02-12T00:53:55.175Z,102868.72
2023-02-12T00:56:23.477Z,102865.28
2023-02-12T00:58:51.982Z,102860.94
2023-02-12T01:01:20.602Z,102868.75
2023-02-12T01:03:49.194Z,102867.03
2023-02-12T01:06:17.794Z,102872.25
2023-02-12T01:08:52.518Z,102864.50
2023-02-12T01:11:22.442Z,102861.91
2023-02-12T01:13:50.762Z,102861.09
2023-02-12T01:16:23.404Z,102858.50
2023-02-12T01:18:55.642Z,102868.91
2023-02-12T01:21:29.073Z,102870.66
2023-02-12T01:23:57.620Z,102867.22
2023-02-12T01:26:28.235Z,102869.00
2023-02-12T01:29:01.885Z,102869.88
2023-02-12T01:31:33.122Z,102870.81
2023-02-12T01:34:02.273Z,102864.75
2023-02-12T01:36:31.662Z,102865.63
2023-02-12T01:39:02.658Z,102858.78
2023-02-12T01:41:35.289Z,102857.06
2023-02-12T01:44:11.448Z,102865.81
2023-02-12T01:46:40.867Z,102865.81
2023-02-12T01:49:15.741Z,102857.16
2023-02-12T01:51:46.105Z,102853.72
2023-02-12T01:54:17.470Z,102841.59
2023-02-12T01:56:47.220Z,102848.59
2023-02-12T01:59:15.917Z,102854.72
2023-02-12T02:01:44.712Z,102854.78
2023-02-12T02:04:17.469Z,102852.25
2023-02-12T02:06:53.621Z,102848.78
2023-02-12T02:09:22.140Z,102849.66
2023-02-12T02:12:09.476Z,102846.19
2023-02-12T02:14:39.887Z,102839.22
2023-02-12T02:17:52.893Z,102843.56
2023-02-12T02:21:14.338Z,102834.03
2023-02-12T02:24:18.161Z,102846.22
2023-02-12T02:27:26.476Z,102842.72
2023-02-12T02:30:36.875Z,102840.97
2023-02-12T02:33:26.256Z,102835.75
2023-02-12T02:36:05.205Z,102839.22
2023-02-12T02:38:42.322Z,102837.47
2023-02-12T02:41:16.650Z,102841.84
2023-02-12T02:43:49.324Z,102846.22
2023-02-12T02:46:26.663Z,102843.56
2023-02-12T02:49:00.413Z,102846.22
2023-02-12T02:51:34.194Z,102843.56
2023-02-12T02:54:10.531Z,102841.81
2023-02-12T02:56:42.377Z,102845.25
2023-02-12T02:59:15.171Z,102840.91
2023-02-12T03:01:49.065Z,102840.03
2023-02-12T03:04:26.841Z,102843.47
2023-02-12T03:07:01.894Z,102839.09
2023-02-12T03:09:37.079Z,102844.31
2023-02-12T03:12:10.861Z,102840.81
2023-02-12T03:14:45.771Z,102838.19
2023-02-12T03:17:22.461Z,102832.09
2023-02-12T03:19:58.746Z,102833.78
2023-02-12T03:22:32.413Z,102838.09
2023-02-12T03:25:09.625Z,102838.09
2023-02-12T03:27:43.064Z,102836.38
2023-02-12T03:30:13.705Z,102839.84
2023-02-12T03:32:50.846Z,102838.19
2023-02-12T03:35:26.185Z,102845.16
2023-02-12T03:38:03.914Z,102844.28
2023-02-12T03:40:40.682Z,102843.41
2023-02-12T03:43:20.717Z,102835.56
2023-02-12T03:45:56.920Z,102839.94
2023-02-12T03:48:33.398Z,102850.38
2023-02-12T03:51:12.762Z,102840.81
2023-02-12T03:53:42.857Z,102846.00
2023-02-12T03:56:16.386Z,102838.13
2023-02-12T03:58:46.424Z,102844.97
2023-02-12T04:01:15.549Z,102846.56
2023-02-12T04:03:45.593Z,102846.47
2023-02-12T04:06:23.190Z,102850.78
2023-02-12T04:08:52.108Z,102852.50
2023-02-12T04:11:31.850Z,102848.06
2023-02-12T04:14:15.563Z,102856.72
2023-02-12T04:16:52.057Z,102854.09
2023-02-12T04:19:35.831Z,102856.69
2023-02-12T04:22:24.326Z,102865.38
2023-02-12T04:25:06.583Z,102860.16
2023-02-12T04:27:46.375Z,102864.53
2023-02-12T04:30:25.198Z,102867.13
2023-02-12T04:32:58.196Z,102864.59
2023-02-12T04:35:34.946Z,102873.28
2023-02-12T04:38:10.981Z,102864.59
2023-02-12T04:40:41.229Z,102874.22
2023-02-12T04:43:09.946Z,102861.19
2023-02-12T04:45:39.453Z,102865.56
2023-02-12T04:48:08.307Z,102871.63
2023-02-12T04:50:43.319Z,102876.84
2023-02-12T04:53:12.136Z,102875.13
2023-02-12T04:55:40.787Z,102879.53
2023-02-12T04:58:09.601Z,102874.31
2023-02-12T05:00:38.180Z,102876.06
2023-02-12T05:03:06.781Z,102866.53
2023-02-12T05:05:35.411Z,102869.19
2023-02-12T05:08:05.346Z,102869.19
2023-02-12T05:10:33.852Z,102862.19
2023-02-12T05:13:02.846Z,102863.03
2023-02-12T05:15:31.401Z,102863.81
2023-02-12T05:17:59.894Z,102865.56
2023-02-12T05:20:28.417Z,102868.91
2023-02-12T05:22:56.623Z,102870.63
2023-02-12T05:25:26.502Z,102864.50
2023-02-12T05:27:56.684Z,102867.03
2023-02-12T05:30:25.349Z,102869.63
2023-02-12T05:32:53.810Z,102866.94
2023-02-12T05:35:22.337Z,102862.47
2023-02-12T05:37:50.830Z,102865.06
2023-02-12T05:40:19.610Z,102863.25
2023-02-12T05:42:49.269Z,102868.34
2023-02-12T05:45:17.857Z,102861.31
2023-02-12T05:47:46.388Z,102864.69
2023-02-12T05:50:14.926Z,102860.19
2023-02-12T05:52:43.107Z,102863.63
2023-02-12T05:55:11.620Z,102867.91
2023-02-12T05:57:39.864Z,102864.44
2023-02-12T06:00:12.738Z,102864.34
2023-02-12T06:02:41.747Z,102859.09
2023-02-12T06:05:09.965Z,102865.97
2023-02-12T06:07:38.533Z,102858.06
2023-02-12T06:10:08.668Z,102859.69
2023-02-12T06:12:37.285Z,102861.31
2023-02-12T06:15:06.231Z,102868.94
2023-02-12T06:17:37.195Z,102861.84
2023-02-12T06:20:06.601Z,102873.03
2023-02-12T06:22:35.094Z,102872.16
2023-02-12T06:25:03.913Z,102873.91
2023-02-12T06:27:32.471Z,102870.50
2023-02-12T06:30:01.001Z,102870.59
2023-02-12T06:32:29.766Z,102874.03
2023-02-12T06:34:59.362Z,102874.91
2023-02-12T06:37:27.911Z,102876.66
2023-02-12T06:39:56.425Z,102874.03
2023-02-12T06:42:24.914Z,102887.16
2023-02-12T06:44:53.438Z,102884.59
2023-02-12T06:47:21.940Z,102895.06
2023-02-12T06:49:50.115Z,102893.44
2023-02-12T06:52:21.124Z,102903.88
2023-02-12T06:54:49.680Z,102904.75
2023-02-12T06:57:17.853Z,102899.56
2023-02-12T06:59:46.432Z,102903.88
2023-02-12T07:02:14.621Z,102905.56
2023-02-12T07:04:42.856Z,102912.44
2023-02-12T07:07:11.220Z,102917.66
2023-02-12T07:09:40.890Z,102922.00
2023-02-12T07:12:09.554Z,102922.94
2023-02-12T07:14:38.361Z,102927.38
2023-02-12T07:17:08.603Z,102925.59
2023-02-12T07:19:37.377Z,102928.09
2023-02-12T07:22:05.978Z,102938.47
2023-02-12T07:24:34.548Z,102929.81
2023-02-12T07:27:04.119Z,102932.47
2023-02-12T07:29:32.798Z,102932.59
2023-02-12T07:32:02.259Z,102933.50
2023-02-12T07:34:30.989Z,102935.31
2023-02-12T07:36:59.538Z,102931.13
2023-02-12T07:39:28.780Z,102937.31
2023-02-12T07:41:58.219Z,102932.19
2023-02-12T07:44:27.857Z,102935.81
2023-02-12T07:46:56.387Z,102927.28
2023-02-12T07:49:25.532Z,102932.59
2023-02-12T07:51:56.760Z,102932.69
2023-02-12T07:54:25.542Z,102935.53
2023-02-12T07:56:54.093Z,102938.22
2023-02-12T07:59:22.702Z,102933.94
2023-02-12T08:01:54.049Z,102940.06
2023-02-12T08:04:26.139Z,102942.78
2023-02-12T08:06:56.816Z,102949.03
2023-02-12T08:09:28.269Z,102950.88
2023-02-12T08:11:56.910Z,102949.31
2023-02-12T08:14:25.688Z,102951.16
2023-02-12T08:16:55.433Z,102949.59
2023-02-12T08:19:26.626Z,102952.34
2023-02-12T08:21:57.871Z,102949.84
2023-02-12T08:24:26.845Z,102962.16
2023-02-12T08:26:55.625Z,102953.59
2023-02-12T08:29:28.110Z,102956.34
2023-02-12T08:31:59.942Z,102951.22
2023-02-12T08:34:31.377Z,102960.03
2023-02-12T08:37:00.137Z,102959.25
2023-02-12T08:39:31.382Z,102960.19
2023-02-12T08:42:01.778Z,102958.47
2023-02-12T08:44:30.542Z,102959.41
2023-02-12T08:47:00.232Z,102969.06
2023-02-12T08:49:31.321Z,102961.31
2023-02-12T08:52:02.039Z,102967.44
2023-02-12T08:54:32.568Z,102953.59
2023-02-12T08:57:03.419Z,102964.09
2023-02-12T08:59:32.338Z,102963.31
2023-02-12T09:02:02.508Z,102963.41
2023-02-12T09:04:31.149Z,102965.25
2023-02-12T09:06:59.687Z,102973.16
2023-02-12T09:09:28.067Z,102963.66
2023-02-12T09:11:56.661Z,102971.63
2023-02-12T09:14:31.165Z,102965.59
2023-02-12T09:17:02.877Z,102976.09
2023-02-12T09:19:31.968Z,102965.78
2023-02-12T09:22:00.773Z,102972.84
2023-02-12T09:24:29.388Z,102968.63
2023-02-12T09:26:58.054Z,102973.09
2023-02-12T09:29:26.665Z,102974.03
2023-02-12T09:31:55.364Z,102971.50
2023-02-12T09:34:25.035Z,102971.56
2023-02-12T09:36:53.621Z,102972.47
2023-02-12T09:39:22.170Z,102970.88
2023-02-12T09:42:26.549Z,102965.78
2023-02-12T09:45:05.112Z,102975.50
2023-02-12T09:47:43.769Z,102974.75
2023-02-12T09:50:38.455Z,102969.59
2023-02-12T09:53:07.221Z,102972.38
2023-02-12T09:55:36.760Z,102977.75
2023-02-12T09:58:13.943Z,102977.00
2023-02-12T10:00:42.237Z,102989.38
2023-02-12T10:03:16.941Z,102980.78
2023-02-12T10:05:50.680Z,102981.72
2023-02-12T10:08:42.655Z,102976.66
2023-02-12T10:11:27.910Z,102972.44
2023-02-12T10:14:11.805Z,102976.06
2023-02-12T10:16:54.867Z,102973.53
2023-02-12T10:19:42.470Z,102971.94
2023-02-12T10:22:22.620Z,102966.84
2023-02-12T10:25:04.118Z,102967.84
2023-02-12T10:27:41.153Z,102971.47
2023-02-12T10:30:20.853Z,102964.63
2023-02-12T10:32:55.767Z,102965.66
2023-02-12T10:35:26.090Z,102965.00
2023-02-12T10:38:01.998Z,102963.44
2023-02-12T10:40:34.586Z,102959.25
2023-02-12T10:43:04.663Z,102957.69
2023-02-12T10:45:36.517Z,102957.00
2023-02-12T10:48:15.769Z,102947.56
2023-02-12T10:51:02.032Z,102944.19
2023-02-12T10:53:36.889Z,102948.72
2023-02-12T10:56:19.033Z,102937.50
2023-02-12T10:58:56.759Z,102928.94
2023-02-12T11:01:29.005Z,102940.44
2023-02-12T11:04:00.112Z,102924.88
2023-02-12T11:06:33.308Z,102925.84
2023-02-12T11:09:04.503Z,102924.25
2023-02-12T11:11:39.898Z,102927.88
2023-02-12T11:14:19.030Z,102921.03
2023-02-12T11:16:55.003Z,102914.13
2023-02-12T11:19:26.447Z,102917.75
2023-02-12T11:22:08.462Z,102915.22
2023-02-12T11:24:39.530Z,102910.94
2023-02-12T11:27:25.533Z,102904.06
2023-02-12T11:30:20.190Z,102904.25
2023-02-12T11:32:51.608Z,102904.38
2023-02-12T11:35:25.806Z,102896.63
2023-02-12T11:37:57.840Z,102894.97
2023-02-12T11:40:30.087Z,102890.69
2023-02-12T11:43:01.600Z,102885.50
2023-02-12T11:45:35.589Z,102887.31
2023-02-12T11:48:04.411Z,102882.13
2023-02-12T11:50:34.181Z,102880.44
2023-02-12T11:53:09.353Z,102880.50
2023-02-12T11:55:42.223Z,102877.94
2023-02-12T11:58:17.981Z,102884.97
2023-02-12T12:00:53.034Z,102877.09
2023-02-12T12:03:29.378Z,102878.88
2023-02-12T12:06:03.834Z,102868.41
2023-02-12T12:08:40.514Z,102870.16
2023-02-12T12:11:17.200Z,102868.44
2023-02-12T12:13:52.063Z,102872.84
2023-02-12T12:16:43.964Z,102865.88
2023-02-12T12:19:49.969Z,102861.56
2023-02-12T12:22:42.138Z,102866.84
2023-02-12T12:25:21.906Z,102868.69
2023-02-12T12:28:13.341Z,102856.47
2023-02-12T12:31:00.786Z,102856.50
2023-02-12T12:33:39.858Z,102852.13
2023-02-12T12:36:52.405Z,102856.53
2023-02-12T12:39:29.677Z,102849.56
2023-02-12T12:42:48.387Z,102847.84
2023-02-12T12:45:36.274Z,102839.97
2023-02-12T12:48:24.256Z,102851.44
2023-02-12T12:51:14.725Z,102837.44
2023-02-12T12:53:57.076Z,102826.97
2023-02-12T12:56:43.461Z,102820.88
2023-02-12T12:59:47.702Z,102816.53
2023-02-12T13:03:29.210Z,102813.03
2023-02-12T13:06:33.330Z,102814.84
2023-02-12T13:09:31.655Z,102811.38
2023-02-12T13:12:28.629Z,102807.88
2023-02-12T13:15:04.694Z,102819.28
2023-02-12T13:17:41.350Z,102807.91
2023-02-12T13:20:21.014Z,102804.44
2023-02-12T13:22:58.607Z,102804.47
2023-02-12T13:25:32.766Z,102797.47
2023-02-12T13:28:03.865Z,102793.09
2023-02-12T13:30:39.403Z,102792.19
2023-02-12T13:33:14.379Z,102786.00
2023-02-12T13:35:49.489Z,102788.59
2023-02-12T13:38:25.600Z,102783.28
2023-02-12T13:40:59.623Z,102785.00
2023-02-12T13:43:50.613Z,102788.53
2023-02-12T13:46:31.168Z,102785.03
2023-02-12T13:49:15.397Z,102774.50
2023-02-12T13:51:49.610Z,102781.50
2023-02-12T13:54:35.505Z,102779.63
2023-02-12T13:57:08.933Z,102773.25
2023-02-12T13:59:44.238Z,102772.16
2023-02-12T14:02:52.595Z,102767.38
2023-02-12T14:05:31.271Z,102756.53
2023-02-12T14:08:05.896Z,102755.34
2023-02-12T14:10:38.810Z,102754.16
2023-02-12T14:13:21.991Z,102752.19
2023-02-12T14:15:53.704Z,102752.06
2023-02-12T14:18:35.403Z,102754.50
2023-02-12T14:21:43.992Z,102754.34
2023-02-12T14:25:03.529Z,102750.78
2023-02-12T14:27:38.150Z,102754.38
2023-02-12T14:30:34.300Z,102742.06
2023-02-12T14:33:27.315Z,102745.59
2023-02-12T14:36:18.323Z,102739.47
2023-02-12T14:39:04.305Z,102747.44
2023-02-12T14:41:41.733Z,102743.13
2023-02-12T14:44:49.087Z,102735.25
2023-02-12T14:47:54.233Z,102726.50
2023-02-12T14:50:32.362Z,102727.53
2023-02-12T14:53:13.724Z,102723.25
2023-02-12T14:55:46.950Z,102731.28
2023-02-12T14:58:21.163Z,102723.47
2023-02-12T15:00:56.001Z,102720.16
2023-02-12T15:03:33.187Z,102727.34
2023-02-12T15:06:14.349Z,102722.16
2023-02-12T15:08:49.917Z,102719.63
2023-02-12T15:11:34.997Z,102717.16
2023-02-12T15:14:08.798Z,102720.81
2023-02-12T15:16:50.197Z,102720.97
2023-02-12T15:19:35.310Z,102716.72
2023-02-12T15:22:04.052Z,102719.47
2023-02-12T15:24:32.581Z,102721.38
2023-02-12T15:27:02.031Z,102725.00
2023-02-12T15:29:39.286Z,102719.81
2023-02-12T15:32:15.575Z,102721.66
2023-02-12T15:34:45.516Z,102720.00
2023-02-12T15:37:24.469Z,102725.34
2023-02-12T15:39:56.968Z,102723.59
2023-02-12T15:42:32.898Z,102721.91
2023-02-12T15:45:23.091Z,102721.91
2023-02-12T15:48:20.610Z,102728.09
2023-02-12T15:50:55.076Z,102722.81
2023-02-12T15:53:24.469Z,102725.47
2023-02-12T15:55:53.735Z,102725.44
2023-02-12T15:58:25.722Z,102725.41
2023-02-12T16:01:00.775Z,102727.16
2023-02-12T16:03:32.356Z,102726.22
2023-02-12T16:06:11.108Z,102724.47
2023-02-12T16:08:40.839Z,102725.25
2023-02-12T16:11:14.692Z,102734.00
2023-02-12T16:13:47.967Z,102732.19
2023-02-12T16:16:24.562Z,102732.09
2023-02-12T16:19:08.792Z,102726.78
2023-02-12T16:21:40.057Z,102733.69
2023-02-12T16:24:28.557Z,102725.69
2023-02-12T16:26:58.868Z,102722.97
2023-02-12T16:29:28.148Z,102724.63
2023-02-12T16:32:03.402Z,102722.75
2023-02-12T16:34:36.633Z,102727.88
2023-02-12T16:37:24.611Z,102733.88
2023-02-12T16:40:26.056Z,102739.81
2023-02-12T16:43:26.462Z,102736.16
2023-02-12T16:46:06.314Z,102736.94
2023-02-12T16:48:42.896Z,102738.53
2023-02-12T16:51:24.735Z,102742.75
2023-02-12T16:53:57.344Z,102737.41
2023-02-12T16:56:29.346Z,102743.41
2023-02-12T16:59:00.320Z,102743.28
2023-02-12T17:01:33.384Z,102744.03
2023-02-12T17:04:06.737Z,102747.44
2023-02-12T17:06:35.342Z,102749.03
2023-02-12T17:09:03.551Z,102748.94
2023-02-12T17:11:31.804Z,102749.69
2023-02-12T17:14:00.305Z,102757.41
2023-02-12T17:16:31.092Z,102752.94
2023-02-12T17:19:00.568Z,102757.22
2023-02-12T17:21:37.699Z,102756.25
2023-02-12T17:24:07.083Z,102748.28
2023-02-12T17:26:35.550Z,102756.03
2023-02-12T17:29:06.079Z,102762.03
2023-02-12T17:31:35.113Z,102763.69
2023-02-12T17:34:03.697Z,102765.34
2023-02-12T17:36:33.551Z,102767.88
2023-02-12T17:39:03.857Z,102770.41
2023-02-12T17:41:32.741Z,102769.44
2023-02-12T17:44:01.393Z,102772.84
2023-02-12T17:46:31.020Z,102772.72
2023-02-12T17:48:59.410Z,102784.81
2023-02-12T17:51:27.709Z,102777.75
2023-02-12T17:53:57.630Z,102778.53
2023-02-12T17:56:26.495Z,102794.09
2023-02-12T17:58:55.210Z,102790.50
2023-02-12T18:01:25.113Z,102795.66
2023-02-12T18:03:55.771Z,102785.09
2023-02-12T18:06:28.129Z,102794.59
2023-02-12T18:08:58.631Z,102790.13
2023-02-12T18:11:27.630Z,102794.41
2023-02-12T18:13:57.676Z,102786.47
2023-02-12T18:16:28.128Z,102796.84
2023-02-12T18:18:57.110Z,102789.81
2023-02-12T18:21:25.679Z,102800.16
2023-02-12T18:23:55.413Z,102800.03
2023-02-12T18:26:25.358Z,102801.66
2023-02-12T18:28:54.587Z,102798.09
2023-02-12T18:31:23.370Z,102805.00
2023-02-12T18:33:52.192Z,102806.69
2023-02-12T18:36:22.275Z,102807.41
2023-02-12T18:38:52.747Z,102798.63
2023-02-12T18:41:26.107Z,102797.63
2023-02-12T18:43:55.266Z,102799.28
2023-02-12T18:46:26.508Z,102787.84
2023-02-12T18:48:55.393Z,102785.16
2023-02-12T18:51:26.249Z,102798.06
2023-02-12T18:54:01.610Z,102802.34
2023-02-12T18:56:33.204Z,102803.97
2023-02-12T18:59:05.705Z,102791.69
2023-02-12T19:01:35.887Z,102793.28
2023-02-12T19:04:07.158Z,102798.41
2023-02-12T19:06:40.598Z,102797.41
2023-02-12T19:09:09.830Z,102791.16
2023-02-12T19:11:39.451Z,102795.34
2023-02-12T19:14:07.983Z,102799.66
2023-02-12T19:16:36.832Z,102797.81
2023-02-12T19:19:05.444Z,102796.84
2023-02-12T19:21:33.939Z,102794.09
2023-02-12T19:24:05.205Z,102794.94
2023-02-12T19:26:35.674Z,102804.38
2023-02-12T19:29:05.940Z,102799.06
2023-02-12T19:31:37.374Z,102799.00
2023-02-12T19:34:08.440Z,102800.69
2023-02-12T19:36:37.769Z,102804.09
2023-02-12T19:39:07.525Z,102805.75
2023-02-12T19:41:40.647Z,102810.88
2023-02-12T19:44:13.591Z,102803.78
2023-02-12T19:46:42.504Z,102815.88
2023-02-12T19:49:15.506Z,102819.25
2023-02-12T19:51:43.857Z,102819.19
2023-02-12T19:54:14.931Z,102805.13
2023-02-12T19:56:43.947Z,102805.09
2023-02-12T19:59:17.092Z,102798.06
2023-02-12T20:01:45.950Z,102810.16
2023-02-12T20:04:15.766Z,102807.47
2023-02-12T20:06:45.784Z,102813.53
2023-02-12T20:09:15.013Z,102814.38
2023-02-12T20:11:43.886Z,102809.09
2023-02-12T20:14:15.175Z,102802.94
2023-02-12T20:16:46.652Z,102818.47
2023-02-12T20:19:17.978Z,102812.31
2023-02-12T20:21:48.705Z,102818.28
2023-02-12T20:24:17.378Z,102826.84
2023-02-12T20:26:45.896Z,102821.53
2023-02-12T20:29:15.878Z,102817.91
2023-02-12T20:31:45.564Z,102814.34
2023-02-12T20:34:16.760Z,102822.06
2023-02-12T20:36:46.883Z,102819.38
2023-02-12T20:39:18.073Z,102814.09
2023-02-12T20:41:46.650Z,102811.38
2023-02-12T20:44:19.895Z,102812.13
2023-02-12T20:46:52.506Z,102812.03
2023-02-12T20:49:24.618Z,102812.75
2023-02-12T20:51:53.238Z,102818.72
2023-02-12T20:54:21.841Z,102811.66
2023-02-12T20:56:51.448Z,102816.78
2023-02-12T20:59:21.106Z,102817.50
2023-02-12T21:01:49.649Z,102822.56
2023-02-12T21:04:20.729Z,102826.75
2023-02-12T21:06:49.416Z,102826.66
2023-02-12T21:09:18.656Z,102830.88
2023-02-12T21:11:47.721Z,102833.38
2023-02-12T21:14:22.773Z,102828.88
2023-02-12T21:16:53.806Z,102826.19
2023-02-12T21:19:22.932Z,102825.19
2023-02-12T21:21:51.436Z,102832.97
2023-02-12T21:24:22.557Z,102829.41
2023-02-12T21:26:51.847Z,102825.75
2023-02-12T21:29:21.399Z,102837.81
2023-02-12T21:31:52.826Z,102829.00
2023-02-12T21:34:23.954Z,102832.31
2023-02-12T21:36:55.068Z,102834.78
2023-02-12T21:39:27.227Z,102832.94
2023-02-12T21:41:58.341Z,102841.53
2023-02-12T21:44:27.561Z,102833.63
2023-02-12T21:46:58.544Z,102834.41
2023-02-12T21:49:28.020Z,102838.69
2023-02-12T21:51:59.178Z,102839.44
2023-02-12T21:54:28.858Z,102841.09
2023-02-12T21:56:57.671Z,102837.56
2023-02-12T21:59:26.465Z,102840.13
2023-02-12T22:01:58.548Z,102846.97
2023-02-12T22:04:27.328Z,102852.06
2023-02-12T22:06:56.510Z,102851.94
2023-02-12T22:09:25.415Z,102848.38
2023-02-12T22:11:53.693Z,102856.06
2023-02-12T22:14:23.030Z,102854.22
2023-02-12T22:16:51.641Z,102854.19
2023-02-12T22:19:21.325Z,102861.91
2023-02-12T22:21:52.388Z,102854.03
2023-02-12T22:24:22.147Z,102853.16
2023-02-12T22:26:50.516Z,102850.56
2023-02-12T22:29:19.311Z,102844.44
2023-02-12T22:31:48.501Z,102852.25
2023-02-12T22:34:20.456Z,102853.03
2023-02-12T22:36:49.073Z,102855.53
2023-02-12T22:39:18.474Z,102847.63
2023-02-12T22:41:47.132Z,102850.13
2023-02-12T22:44:18.347Z,102853.47
2023-02-12T22:46:48.130Z,102851.69
2023-02-12T22:49:17.618Z,102861.94
2023-02-12T22:51:47.316Z,102850.63
2023-02-12T22:54:18.467Z,102854.03
2023-02-12T22:56:50.843Z,102853.13
2023-02-12T22:59:19.591Z,102853.13
2023-02-12T23:01:48.110Z,102858.28
2023-02-12T23:04:18.583Z,102853.91
2023-02-12T23:06:48.646Z,102854.69
2023-02-12T23:09:19.164Z,102857.22
2023-02-12T23:11:48.278Z,102861.47
2023-02-12T23:14:16.592Z,102861.47
2023-02-12T23:16:45.542Z,102859.72
2023-02-12T23:19:14.457Z,102858.88
2023-02-12T23:21:43.370Z,102855.47
2023-02-12T23:24:16.068Z,102855.47
2023-02-12T23:26:45.867Z,102855.50
2023-02-12T23:29:14.478Z,102861.59
2023-02-12T23:31:43.112Z,102853.78
2023-02-12T23:34:11.709Z,102853.78
2023-02-12T23:36:40.280Z,102853.00
2023-02-12T23:39:09.522Z,102853.88
2023-02-12T23:41:39.250Z,102846.94
2023-02-12T23:44:08.003Z,102847.91
2023-02-12T23:46:36.682Z,102843.63
2023-02-12T23:49:05.511Z,102841.97
2023-02-12T23:51:34.162Z,102833.34
2023-02-12T23:54:03.112Z,102835.06
2023-02-12T23:56:31.350Z,102842.06
2023-02-12T23:59:00.904Z,102841.22
